sensor_id;sensor_type;location;lat;lon;timestamp;pressure;altitude;pressure_sealevel;temperature;humidity
21863;BME280;11096;51.338;12.524;2023-03-05T00:01:15;100208.56;;;3.58;nan
21863;BME280;11096;51.338;12.524;2023-03-05T00:03:42;100212.94;;;3.56;nan
21863;BME280;11096;51.338;12.524;2023-03-05T00:06:07;100203.59;;;3.54;nan
21863;BME280;11096;51.338;12.524;2023-03-05T00:08:33;100205.34;;;3.53;nan
21863;BME280;11096;51.338;12.524;2023-03-05T00:11:01;100200.25;;;3.52;nan
21863;BME280;11096;51.338;12.524;2023-03-05T00:13:27;100199.91;;;3.39;nan
21863;BME280;11096;51.338;12.524;2023-03-05T00:15:53;100198.81;;;3.44;nan
21863;BME280;11096;51.338;12.524;2023-03-05T00:18:18;100205.38;;;3.30;nan
21863;BME280;11096;51.338;12.524;2023-03-05T00:20:44;100198.06;;;3.42;nan
21863;BME280;11096;51.338;12.524;2023-03-05T00:23:10;100195.53;;;3.41;nan
21863;BME280;11096;51.338;12.524;2023-03-05T00:25:36;100200.81;;;3.38;nan
21863;BME280;11096;51.338;12.524;2023-03-05T00:28:02;100186.88;;;3.43;nan
21863;BME280;11096;51.338;12.524;2023-03-05T00:30:27;100198.13;;;3.41;nan
21863;BME280;11096;51.338;12.524;2023-03-05T00:32:53;100194.72;;;3.40;nan
21863;BME280;11096;51.338;12.524;2023-03-05T00:35:18;100183.16;;;3.29;nan
21863;BME280;11096;51.338;12.524;2023-03-05T00:37:43;100188.66;;;3.41;nan
21863;BME280;11096;51.338;12.524;2023-03-05T00:40:09;100193.97;;;3.37;nan
21863;BME280;11096;51.338;12.524;2023-03-05T00:42:35;100183.78;;;3.35;nan
21863;BME280;11096;51.338;12.524;2023-03-05T00:45:04;100185.41;;;3.38;nan
21863;BME280;11096;51.338;12.524;2023-03-05T00:47:31;100171.25;;;3.28;nan
21863;BME280;11096;51.338;12.524;2023-03-05T00:49:56;100176.28;;;3.29;nan
21863;BME280;11096;51.338;12.524;2023-03-05T00:52:22;100174.28;;;3.37;nan
21863;BME280;11096;51.338;12.524;2023-03-05T00:54:48;100170.03;;;3.36;nan
21863;BME280;11096;51.338;12.524;2023-03-05T00:57:13;100173.44;;;3.37;nan
21863;BME280;11096;51.338;12.524;2023-03-05T00:59:38;100166.75;;;3.33;nan
21863;BME280;11096;51.338;12.524;2023-03-05T01:02:04;100164.25;;;3.31;nan
21863;BME280;11096;51.338;12.524;2023-03-05T01:04:29;100164.75;;;3.17;nan
21863;BME280;11096;51.338;12.524;2023-03-05T01:06:55;100160.31;;;3.22;nan
21863;BME280;11096;51.338;12.524;2023-03-05T01:09:20;100156.88;;;3.22;nan
21863;BME280;11096;51.338;12.524;2023-03-05T01:11:46;100148.63;;;3.14;nan
21863;BME280;11096;51.338;12.524;2023-03-05T01:14:12;100154.31;;;3.22;nan
21863;BME280;11096;51.338;12.524;2023-03-05T01:16:37;100148.59;;;3.15;nan
21863;BME280;11096;51.338;12.524;2023-03-05T01:19:02;100140.88;;;3.15;nan
21863;BME280;11096;51.338;12.524;2023-03-05T01:21:28;100141.94;;;3.10;nan
21863;BME280;11096;51.338;12.524;2023-03-05T01:23:53;100145.16;;;3.15;nan
21863;BME280;11096;51.338;12.524;2023-03-05T01:26:19;100147.16;;;3.08;nan
21863;BME280;11096;51.338;12.524;2023-03-05T01:28:44;100146.91;;;3.14;nan
21863;BME280;11096;51.338;12.524;2023-03-05T01:31:10;100135.19;;;3.07;nan
21863;BME280;11096;51.338;12.524;2023-03-05T01:33:36;100130.00;;;3.09;nan
21863;BME280;11096;51.338;12.524;2023-03-05T01:36:06;100131.56;;;3.13;nan
21863;BME280;11096;51.338;12.524;2023-03-05T01:38:32;100124.81;;;3.10;nan
21863;BME280;11096;51.338;12.524;2023-03-05T01:40:57;100128.28;;;3.09;nan
21863;BME280;11096;51.338;12.524;2023-03-05T01:43:27;100122.34;;;3.07;nan
21863;BME280;11096;51.338;12.524;2023-03-05T01:48:37;100118.91;;;3.08;nan
21863;BME280;11096;51.338;12.524;2023-03-05T01:51:03;100127.41;;;3.10;nan
21863;BME280;11096;51.338;12.524;2023-03-05T01:53:28;100126.66;;;3.07;nan
21863;BME280;11096;51.338;12.524;2023-03-05T01:55:54;100116.56;;;3.02;nan
21863;BME280;11096;51.338;12.524;2023-03-05T01:58:19;100112.22;;;3.04;nan
21863;BME280;11096;51.338;12.524;2023-03-05T02:00:47;100119.75;;;3.09;nan
21863;BME280;11096;51.338;12.524;2023-03-05T02:03:14;100112.25;;;3.03;nan
21863;BME280;11096;51.338;12.524;2023-03-05T02:05:41;100114.06;;;3.00;nan
21863;BME280;11096;51.338;12.524;2023-03-05T02:08:18;100114.16;;;2.97;nan
21863;BME280;11096;51.338;12.524;2023-03-05T02:10:55;100110.47;;;3.05;nan
21863;BME280;11096;51.338;12.524;2023-03-05T02:13:26;100102.06;;;3.01;nan
21863;BME280;11096;51.338;12.524;2023-03-05T02:15:55;100093.44;;;3.02;nan
21863;BME280;11096;51.338;12.524;2023-03-05T02:18:22;100093.44;;;3.02;nan
21863;BME280;11096;51.338;12.524;2023-03-05T02:20:50;100091.19;;;2.94;nan
21863;BME280;11096;51.338;12.524;2023-03-05T02:23:19;100093.44;;;3.02;nan
21863;BME280;11096;51.338;12.524;2023-03-05T02:25:45;100086.41;;;2.85;nan
21863;BME280;11096;51.338;12.524;2023-03-05T02:28:29;100079.72;;;2.81;nan
21863;BME280;11096;51.338;12.524;2023-03-05T02:30:56;100079.97;;;2.97;nan
21863;BME280;11096;51.338;12.524;2023-03-05T02:33:22;100075.72;;;2.96;nan
21863;BME280;11096;51.338;12.524;2023-03-05T02:35:47;100071.59;;;2.92;nan
21863;BME280;11096;51.338;12.524;2023-03-05T02:38:15;100076.75;;;2.92;nan
21863;BME280;11096;51.338;12.524;2023-03-05T02:40:40;100077.69;;;2.89;nan
21863;BME280;11096;51.338;12.524;2023-03-05T02:43:06;100071.44;;;2.96;nan
21863;BME280;11096;51.338;12.524;2023-03-05T02:45:31;100067.31;;;2.92;nan
21863;BME280;11096;51.338;12.524;2023-03-05T02:47:56;100059.53;;;2.72;nan
21863;BME280;11096;51.338;12.524;2023-03-05T02:50:22;100055.78;;;2.80;nan
21863;BME280;11096;51.338;12.524;2023-03-05T02:52:48;100060.50;;;2.69;nan
21863;BME280;11096;51.338;12.524;2023-03-05T02:55:14;100059.19;;;2.81;nan
21863;BME280;11096;51.338;12.524;2023-03-05T02:57:39;100056.34;;;2.89;nan
21863;BME280;11096;51.338;12.524;2023-03-05T03:00:05;100054.78;;;2.85;nan
21863;BME280;11096;51.338;12.524;2023-03-05T03:02:31;100064.50;;;2.76;nan
21863;BME280;11096;51.338;12.524;2023-03-05T03:04:56;100058.00;;;2.90;nan
21863;BME280;11096;51.338;12.524;2023-03-05T03:07:22;100053.94;;;2.84;nan
21863;BME280;11096;51.338;12.524;2023-03-05T03:09:47;100053.44;;;2.74;nan
21863;BME280;11096;51.338;12.524;2023-03-05T03:12:13;100055.84;;;2.79;nan
21863;BME280;11096;51.338;12.524;2023-03-05T03:14:40;100054.91;;;2.82;nan
21863;BME280;11096;51.338;12.524;2023-03-05T03:17:15;100058.00;;;2.90;nan
21863;BME280;11096;51.338;12.524;2023-03-05T03:19:41;100048.31;;;2.74;nan
21863;BME280;11096;51.338;12.524;2023-03-05T03:22:08;100043.97;;;2.76;nan
21863;BME280;11096;51.338;12.524;2023-03-05T03:24:35;100049.16;;;2.75;nan
21863;BME280;11096;51.338;12.524;2023-03-05T03:27:01;100048.44;;;2.71;nan
21863;BME280;11096;51.338;12.524;2023-03-05T03:29:27;100047.41;;;2.75;nan
21863;BME280;11096;51.338;12.524;2023-03-05T03:31:52;100043.19;;;2.74;nan
21863;BME280;11096;51.338;12.524;2023-03-05T03:34:18;100043.31;;;2.71;nan
21863;BME280;11096;51.338;12.524;2023-03-05T03:36:46;100043.06;;;2.77;nan
21863;BME280;11096;51.338;12.524;2023-03-05T03:39:12;100035.50;;;2.74;nan
21863;BME280;11096;51.338;12.524;2023-03-05T03:41:57;100031.97;;;2.77;nan
21863;BME280;11096;51.338;12.524;2023-03-05T03:44:22;100031.66;;;2.63;nan
21863;BME280;11096;51.338;12.524;2023-03-05T03:46:49;100024.78;;;2.63;nan
21863;BME280;11096;51.338;12.524;2023-03-05T03:49:19;100036.75;;;2.64;nan
21863;BME280;11096;51.338;12.524;2023-03-05T03:51:46;100034.34;;;2.60;nan
21863;BME280;11096;51.338;12.524;2023-03-05T03:54:12;100029.22;;;2.60;nan
21863;BME280;11096;51.338;12.524;2023-03-05T03:56:38;100026.03;;;2.53;nan
21863;BME280;11096;51.338;12.524;2023-03-05T03:59:04;100031.06;;;2.56;nan
21863;BME280;11096;51.338;12.524;2023-03-05T04:01:29;100025.31;;;2.49;nan
21863;BME280;11096;51.338;12.524;2023-03-05T04:03:55;100022.47;;;2.33;nan
21863;BME280;11096;51.338;12.524;2023-03-05T04:06:20;100012.63;;;2.23;nan
21863;BME280;11096;51.338;12.524;2023-03-05T04:08:46;100014.94;;;2.29;nan
21863;BME280;11096;51.338;12.524;2023-03-05T04:11:11;100010.44;;;2.35;nan
21863;BME280;11096;51.338;12.524;2023-03-05T04:13:37;100009.78;;;2.30;nan
21863;BME280;11096;51.338;12.524;2023-03-05T04:16:02;100003.88;;;2.28;nan
21863;BME280;11096;51.338;12.524;2023-03-05T04:18:28;100002.41;;;2.45;nan
21863;BME280;11096;51.338;12.524;2023-03-05T04:20:53;99999.59;;;2.51;nan
21863;BME280;11096;51.338;12.524;2023-03-05T04:23:19;100001.47;;;2.47;nan
21863;BME280;11096;51.338;12.524;2023-03-05T04:25:44;100004.56;;;2.55;nan
21863;BME280;11096;51.338;12.524;2023-03-05T04:28:10;100000.38;;;2.53;nan
21863;BME280;11096;51.338;12.524;2023-03-05T04:30:35;100001.16;;;2.55;nan
21863;BME280;11096;51.338;12.524;2023-03-05T04:33:01;99994.22;;;2.58;nan
21863;BME280;11096;51.338;12.524;2023-03-05T04:35:26;99990.03;;;2.56;nan
21863;BME280;11096;51.338;12.524;2023-03-05T04:37:52;99990.06;;;2.54;nan
21863;BME280;11096;51.338;12.524;2023-03-05T04:40:17;99979.50;;;2.62;nan
21863;BME280;11096;51.338;12.524;2023-03-05T04:42:43;99972.59;;;2.64;nan
21863;BME280;11096;51.338;12.524;2023-03-05T04:45:10;99972.78;;;2.60;nan
21863;BME280;11096;51.338;12.524;2023-03-05T04:47:35;99963.41;;;2.58;nan
21863;BME280;11096;51.338;12.524;2023-03-05T04:50:02;99966.69;;;2.62;nan
21863;BME280;11096;51.338;12.524;2023-03-05T04:52:28;99966.03;;;2.57;nan
21863;BME280;11096;51.338;12.524;2023-03-05T04:54:54;99961.56;;;2.62;nan
21863;BME280;11096;51.338;12.524;2023-03-05T04:57:19;99964.16;;;2.61;nan
21863;BME280;11096;51.338;12.524;2023-03-05T04:59:44;99958.16;;;2.62;nan
21863;BME280;11096;51.338;12.524;2023-03-05T05:02:10;99960.59;;;2.65;nan
21863;BME280;11096;51.338;12.524;2023-03-05T05:04:36;99964.66;;;2.70;nan
21863;BME280;11096;51.338;12.524;2023-03-05T05:07:01;99961.25;;;2.70;nan
21863;BME280;11096;51.338;12.524;2023-03-05T05:09:27;99961.19;;;2.71;nan
21863;BME280;11096;51.338;12.524;2023-03-05T05:11:53;99959.69;;;2.66;nan
21863;BME280;11096;51.338;12.524;2023-03-05T05:14:19;99957.84;;;2.69;nan
21863;BME280;11096;51.338;12.524;2023-03-05T05:16:44;99954.03;;;2.79;nan
21863;BME280;11096;51.338;12.524;2023-03-05T05:19:10;99955.28;;;2.69;nan
21863;BME280;11096;51.338;12.524;2023-03-05T05:21:36;99951.16;;;2.65;nan
21863;BME280;11096;51.338;12.524;2023-03-05T05:24:01;99944.59;;;2.58;nan
21863;BME280;11096;51.338;12.524;2023-03-05T05:26:26;99935.91;;;2.62;nan
21863;BME280;11096;51.338;12.524;2023-03-05T05:28:52;99940.19;;;2.62;nan
21863;BME280;11096;51.338;12.524;2023-03-05T05:31:18;99936.69;;;2.64;nan
21863;BME280;11096;51.338;12.524;2023-03-05T05:33:44;99943.00;;;2.55;nan
21863;BME280;11096;51.338;12.524;2023-03-05T05:36:12;99946.16;;;2.62;nan
21863;BME280;11096;51.338;12.524;2023-03-05T05:38:38;99956.47;;;2.61;nan
21863;BME280;11096;51.338;12.524;2023-03-05T05:41:05;99953.81;;;2.64;nan
21863;BME280;11096;51.338;12.524;2023-03-05T05:43:31;99947.81;;;2.63;nan
21863;BME280;11096;51.338;12.524;2023-03-05T05:46:05;99946.16;;;2.62;nan
21863;BME280;11096;51.338;12.524;2023-03-05T05:48:32;99955.28;;;2.69;nan
21863;BME280;11096;51.338;12.524;2023-03-05T05:50:58;99951.81;;;2.70;nan
21863;BME280;11096;51.338;12.524;2023-03-05T05:53:24;99958.00;;;2.66;nan
21863;BME280;11096;51.338;12.524;2023-03-05T05:55:49;99944.97;;;2.71;nan
21863;BME280;11096;51.338;12.524;2023-03-05T05:58:15;99943.06;;;2.76;nan
21863;BME280;11096;51.338;12.524;2023-03-05T06:00:40;99948.28;;;2.73;nan
21863;BME280;11096;51.338;12.524;2023-03-05T06:03:06;99948.91;;;2.79;nan
21863;BME280;11096;51.338;12.524;2023-03-05T06:05:32;99940.50;;;2.76;nan
21863;BME280;11096;51.338;12.524;2023-03-05T06:07:58;99945.41;;;2.80;nan
21863;BME280;11096;51.338;12.524;2023-03-05T06:10:23;99956.13;;;2.70;nan
21863;BME280;11096;51.338;12.524;2023-03-05T06:12:49;99948.06;;;2.79;nan
21863;BME280;11096;51.338;12.524;2023-03-05T06:15:14;99948.44;;;2.90;nan
21863;BME280;11096;51.338;12.524;2023-03-05T06:17:40;99953.94;;;3.03;nan
21863;BME280;11096;51.338;12.524;2023-03-05T06:20:06;99950.47;;;3.04;nan
21863;BME280;11096;51.338;12.524;2023-03-05T06:22:35;99953.94;;;3.03;nan
21863;BME280;11096;51.338;12.524;2023-03-05T06:25:01;99947.44;;;2.94;nan
21863;BME280;11096;51.338;12.524;2023-03-05T06:27:27;99940.56;;;2.95;nan
21863;BME280;11096;51.338;12.524;2023-03-05T06:29:53;99945.78;;;2.93;nan
21863;BME280;11096;51.338;12.524;2023-03-05T06:32:19;99944.56;;;3.02;nan
21863;BME280;11096;51.338;12.524;2023-03-05T06:34:44;99943.09;;;2.96;nan
21863;BME280;11096;51.338;12.524;2023-03-05T06:37:10;99945.59;;;2.98;nan
21863;BME280;11096;51.338;12.524;2023-03-05T06:39:35;99949.63;;;3.04;nan
21863;BME280;11096;51.338;12.524;2023-03-05T06:42:01;99942.78;;;3.04;nan
21863;BME280;11096;51.338;12.524;2023-03-05T06:44:26;99940.56;;;2.95;nan
21863;BME280;11096;51.338;12.524;2023-03-05T06:46:52;99941.19;;;2.79;nan
21863;BME280;11096;51.338;12.524;2023-03-05T06:49:17;99946.28;;;3.01;nan
21863;BME280;11096;51.338;12.524;2023-03-05T06:51:43;99940.97;;;3.06;nan
21863;BME280;11096;51.338;12.524;2023-03-05T06:54:11;99944.31;;;3.08;nan
21863;BME280;11096;51.338;12.524;2023-03-05T06:56:39;99948.22;;;3.17;nan
21863;BME280;11096;51.338;12.524;2023-03-05T06:59:05;99942.72;;;3.26;nan
21863;BME280;11096;51.338;12.524;2023-03-05T07:01:31;99941.22;;;3.41;nan
21863;BME280;11096;51.338;12.524;2023-03-05T07:03:56;99936.47;;;3.52;nan
21863;BME280;11096;51.338;12.524;2023-03-05T07:06:27;99931.53;;;3.48;nan
21863;BME280;11096;51.338;12.524;2023-03-05T07:08:57;99932.75;;;3.39;nan
21863;BME280;11096;51.338;12.524;2023-03-05T07:11:24;99944.19;;;3.32;nan
21863;BME280;11096;51.338;12.524;2023-03-05T07:13:50;99943.69;;;3.23;nan
21863;BME280;11096;51.338;12.524;2023-03-05T07:16:18;99948.44;;;3.33;nan
21863;BME280;11096;51.338;12.524;2023-03-05T07:18:44;99942.88;;;3.42;nan
21863;BME280;11096;51.338;12.524;2023-03-05T07:21:15;99945.16;;;3.50;nan
21863;BME280;11096;51.338;12.524;2023-03-05T07:23:41;99939.06;;;3.52;nan
21863;BME280;11096;51.338;12.524;2023-03-05T07:26:06;99933.06;;;3.52;nan
21863;BME280;11096;51.338;12.524;2023-03-05T07:28:33;99933.13;;;3.50;nan
21863;BME280;11096;51.338;12.524;2023-03-05T07:31:04;99936.78;;;3.44;nan
21863;BME280;11096;51.338;12.524;2023-03-05T07:33:30;99936.16;;;3.39;nan
21863;BME280;11096;51.338;12.524;2023-03-05T07:35:56;99939.97;;;3.31;nan
21863;BME280;11096;51.338;12.524;2023-03-05T07:38:22;99935.50;;;3.34;nan
21863;BME280;11096;51.338;12.524;2023-03-05T07:40:47;99940.25;;;3.43;nan
21863;BME280;11096;51.338;12.524;2023-03-05T07:43:13;99937.19;;;3.35;nan
21863;BME280;11096;51.338;12.524;2023-03-05T07:45:43;99936.41;;;3.54;nan
21863;BME280;11096;51.338;12.524;2023-03-05T07:48:13;99927.63;;;3.39;nan
21863;BME280;11096;51.338;12.524;2023-03-05T07:50:39;99927.28;;;3.67;nan
21863;BME280;11096;51.338;12.524;2023-03-05T07:53:05;99932.84;;;3.77;nan
21863;BME280;11096;51.338;12.524;2023-03-05T07:55:31;99927.19;;;3.69;nan
21863;BME280;11096;51.338;12.524;2023-03-05T07:57:56;99929.66;;;3.72;nan
21863;BME280;11096;51.338;12.524;2023-03-05T08:00:21;99930.19;;;3.59;nan
21863;BME280;11096;51.338;12.524;2023-03-05T08:02:47;99924.06;;;3.62;nan
21863;BME280;11096;51.338;12.524;2023-03-05T08:05:14;99919.75;;;3.81;nan
21863;BME280;11096;51.338;12.524;2023-03-05T08:07:39;99923.84;;;3.66;nan
21863;BME280;11096;51.338;12.524;2023-03-05T08:10:05;99920.09;;;3.74;nan
21863;BME280;11096;51.338;12.524;2023-03-05T08:12:31;99921.94;;;3.72;nan
21863;BME280;11096;51.338;12.524;2023-03-05T08:14:57;99916.84;;;3.70;nan
21863;BME280;11096;51.338;12.524;2023-03-05T08:17:22;99913.09;;;3.96;nan
21863;BME280;11096;51.338;12.524;2023-03-05T08:19:47;99914.22;;;4.09;nan
21863;BME280;11096;51.338;12.524;2023-03-05T08:22:13;99913.09;;;4.34;nan
21863;BME280;11096;51.338;12.524;2023-03-05T08:24:41;99909.34;;;4.59;nan
21863;BME280;11096;51.338;12.524;2023-03-05T08:27:06;99911.84;;;4.60;nan
21863;BME280;11096;51.338;12.524;2023-03-05T08:29:32;99910.13;;;4.78;nan
21863;BME280;11096;51.338;12.524;2023-03-05T08:31:57;99911.72;;;4.98;nan
21863;BME280;11096;51.338;12.524;2023-03-05T08:34:22;99904.91;;;5.14;nan
21863;BME280;11096;51.338;12.524;2023-03-05T08:36:48;99910.72;;;5.35;nan
21863;BME280;11096;51.338;12.524;2023-03-05T08:39:14;99907.84;;;5.42;nan
21863;BME280;11096;51.338;12.524;2023-03-05T08:41:40;99899.53;;;5.02;nan
21863;BME280;11096;51.338;12.524;2023-03-05T08:44:06;99894.25;;;5.38;nan
21863;BME280;11096;51.338;12.524;2023-03-05T08:46:31;99904.34;;;5.58;nan
21863;BME280;11096;51.338;12.524;2023-03-05T08:48:57;99902.63;;;5.59;nan
21863;BME280;11096;51.338;12.524;2023-03-05T08:51:23;99894.50;;;5.82;nan
21863;BME280;11096;51.338;12.524;2023-03-05T08:53:52;99901.75;;;5.76;nan
21863;BME280;11096;51.338;12.524;2023-03-05T08:56:18;99892.66;;;5.35;nan
21863;BME280;11096;51.338;12.524;2023-03-05T08:58:44;99902.03;;;5.54;nan
21863;BME280;11096;51.338;12.524;2023-03-05T09:01:11;99894.94;;;5.42;nan
21863;BME280;11096;51.338;12.524;2023-03-05T09:03:37;99884.53;;;5.43;nan
21863;BME280;11096;51.338;12.524;2023-03-05T09:06:06;99885.69;;;5.37;nan
21863;BME280;11096;51.338;12.524;2023-03-05T09:08:32;99881.59;;;5.33;nan
21863;BME280;11096;51.338;12.524;2023-03-05T09:11:00;99876.03;;;5.25;nan
21863;BME280;11096;51.338;12.524;2023-03-05T09:13:26;99878.72;;;5.40;nan
21863;BME280;11096;51.338;12.524;2023-03-05T09:15:56;99868.25;;;5.43;nan
21863;BME280;11096;51.338;12.524;2023-03-05T09:18:22;99863.63;;;4.99;nan
21863;BME280;11096;51.338;12.524;2023-03-05T09:20:47;99869.09;;;4.92;nan
21863;BME280;11096;51.338;12.524;2023-03-05T09:23:13;99861.38;;;4.92;nan
21863;BME280;11096;51.338;12.524;2023-03-05T09:25:39;99859.03;;;4.88;nan
21863;BME280;11096;51.338;12.524;2023-03-05T09:28:05;99872.41;;;4.60;nan
21863;BME280;11096;51.338;12.524;2023-03-05T09:30:30;99868.19;;;4.59;nan
21863;BME280;11096;51.338;12.524;2023-03-05T09:32:56;99865.75;;;4.90;nan
21863;BME280;11096;51.338;12.524;2023-03-05T09:35:21;99859.66;;;5.09;nan
21863;BME280;11096;51.338;12.524;2023-03-05T09:37:47;99860.69;;;5.40;nan
21863;BME280;11096;51.338;12.524;2023-03-05T09:40:17;99858.97;;;5.56;nan
21863;BME280;11096;51.338;12.524;2023-03-05T09:48:15;99859.63;;;4.76;nan
21863;BME280;11096;51.338;12.524;2023-03-05T09:50:42;99868.16;;;4.41;nan
21863;BME280;11096;51.338;12.524;2023-03-05T09:55:54;99860.09;;;4.30;nan
21863;BME280;11096;51.338;12.524;2023-03-05T09:59:02;99870.19;;;4.16;nan
21863;BME280;11096;51.338;12.524;2023-03-05T10:01:20;99856.97;;;3.87;nan
21863;BME280;11096;51.338;12.524;2023-03-05T10:06:26;99869.16;;;6.22;nan
21863;BME280;11096;51.338;12.524;2023-03-05T10:11:42;99844.00;;;8.68;nan
21863;BME280;11096;51.338;12.524;2023-03-05T10:14:18;99833.69;;;8.94;nan
21863;BME280;11096;51.338;12.524;2023-03-05T10:21:09;99824.44;;;8.37;nan
21863;BME280;11096;51.338;12.524;2023-03-05T10:23:40;99814.81;;;7.43;nan
21863;BME280;11096;51.338;12.524;2023-03-05T10:29:06;99813.13;;;7.28;nan
21863;BME280;11096;51.338;12.524;2023-03-05T10:31:48;99813.44;;;6.34;nan
21863;BME280;11096;51.338;12.524;2023-03-05T10:45:21;99789.47;;;6.62;nan
21863;BME280;11096;51.338;12.524;2023-03-05T10:47:53;99787.13;;;6.13;nan
21863;BME280;11096;51.338;12.524;2023-03-05T10:50:24;99790.78;;;6.09;nan
21863;BME280;11096;51.338;12.524;2023-03-05T10:53:25;99785.78;;;5.90;nan
21863;BME280;11096;51.338;12.524;2023-03-05T10:55:52;99786.63;;;5.43;nan
21863;BME280;11096;51.338;12.524;2023-03-05T10:58:21;99786.59;;;5.27;nan
21863;BME280;11096;51.338;12.524;2023-03-05T11:03:22;99778.44;;;5.19;nan
21863;BME280;11096;51.338;12.524;2023-03-05T11:05:57;99782.22;;;4.96;nan
21863;BME280;11096;51.338;12.524;2023-03-05T11:11:04;99766.47;;;5.02;nan
21863;BME280;11096;51.338;12.524;2023-03-05T11:13:31;99770.56;;;5.38;nan
21863;BME280;11096;51.338;12.524;2023-03-05T11:16:03;99769.84;;;5.52;nan
21863;BME280;11096;51.338;12.524;2023-03-05T11:18:29;99761.66;;;5.44;nan
21863;BME280;11096;51.338;12.524;2023-03-05T11:23:37;99742.06;;;6.63;nan
21863;BME280;11096;51.338;12.524;2023-03-05T11:33:34;99719.25;;;8.87;nan
21863;BME280;11096;51.338;12.524;2023-03-05T11:36:21;99718.63;;;8.45;nan
21863;BME280;11096;51.338;12.524;2023-03-05T11:38:56;99714.63;;;7.47;nan
21863;BME280;11096;51.338;12.524;2023-03-05T11:41:30;99714.13;;;6.99;nan
21863;BME280;11096;51.338;12.524;2023-03-05T11:43:58;99701.66;;;6.34;nan
21863;BME280;11096;51.338;12.524;2023-03-05T11:46:28;99704.75;;;6.55;nan
21863;BME280;11096;51.338;12.524;2023-03-05T11:48:57;99696.53;;;6.48;nan
21863;BME280;11096;51.338;12.524;2023-03-05T11:51:35;99693.69;;;6.22;nan
21863;BME280;11096;51.338;12.524;2023-03-05T11:54:07;99696.56;;;6.18;nan
21863;BME280;11096;51.338;12.524;2023-03-05T11:56:35;99688.22;;;5.82;nan
21863;BME280;11096;51.338;12.524;2023-03-05T11:59:17;99696.31;;;5.60;nan
21863;BME280;11096;51.338;12.524;2023-03-05T12:01:54;99685.84;;;5.64;nan
21863;BME280;11096;51.338;12.524;2023-03-05T12:04:21;99682.28;;;5.50;nan
21863;BME280;11096;51.338;12.524;2023-03-05T12:06:52;99680.66;;;5.79;nan
21863;BME280;11096;51.338;12.524;2023-03-05T12:12:04;99676.97;;;6.44;nan
21863;BME280;11096;51.338;12.524;2023-03-05T12:14:41;99667.19;;;6.78;nan
21863;BME280;11096;51.338;12.524;2023-03-05T12:17:27;99664.63;;;6.92;nan
21863;BME280;11096;51.338;12.524;2023-03-05T12:20:25;99654.44;;;7.03;nan
21863;BME280;11096;51.338;12.524;2023-03-05T12:22:52;99654.84;;;6.69;nan
21863;BME280;11096;51.338;12.524;2023-03-05T12:25:43;99651.53;;;6.52;nan
21863;BME280;11096;51.338;12.524;2023-03-05T12:28:51;99647.38;;;6.35;nan
21863;BME280;11096;51.338;12.524;2023-03-05T12:46:39;99652.63;;;5.27;nan
21863;BME280;11096;51.338;12.524;2023-03-05T12:51:42;99643.91;;;5.30;nan
21863;BME280;11096;51.338;12.524;2023-03-05T12:54:34;99652.47;;;5.30;nan
21863;BME280;11096;51.338;12.524;2023-03-05T12:57:23;99649.63;;;5.19;nan
21863;BME280;11096;51.338;12.524;2023-03-05T13:02:33;99644.00;;;5.12;nan
21863;BME280;11096;51.338;12.524;2023-03-05T13:05:04;99637.41;;;5.38;nan
21863;BME280;11096;51.338;12.524;2023-03-05T13:07:32;99638.84;;;5.28;nan
21863;BME280;11096;51.338;12.524;2023-03-05T13:09:58;99635.59;;;5.25;nan
21863;BME280;11096;51.338;12.524;2023-03-05T13:12:26;99636.56;;;5.38;nan
21863;BME280;11096;51.338;12.524;2023-03-05T13:17:39;99626.06;;;5.27;nan
21863;BME280;11096;51.338;12.524;2023-03-05T13:20:40;99627.72;;;5.58;nan
21863;BME280;11096;51.338;12.524;2023-03-05T13:25:32;99621.59;;;5.91;nan
21863;BME280;11096;51.338;12.524;2023-03-05T13:28:14;99613.44;;;6.27;nan
21863;BME280;11096;51.338;12.524;2023-03-05T13:30:55;99621.47;;;6.51;nan
21863;BME280;11096;51.338;12.524;2023-03-05T13:33:25;99616.59;;;6.47;nan
21863;BME280;11096;51.338;12.524;2023-03-05T13:35:51;99603.16;;;6.97;nan
21863;BME280;11096;51.338;12.524;2023-03-05T13:38:38;99610.88;;;6.41;nan
21863;BME280;11096;51.338;12.524;2023-03-05T13:43:29;99614.00;;;5.88;nan
21863;BME280;11096;51.338;12.524;2023-03-05T13:45:55;99609.28;;;6.10;nan
21863;BME280;11096;51.338;12.524;2023-03-05T13:48:21;99616.66;;;6.16;nan
21863;BME280;11096;51.338;12.524;2023-03-05T13:50:53;99602.28;;;6.27;nan
21863;BME280;11096;51.338;12.524;2023-03-05T13:53:24;99606.38;;;6.45;nan
21863;BME280;11096;51.338;12.524;2023-03-05T13:56:01;99597.03;;;6.57;nan
21863;BME280;11096;51.338;12.524;2023-03-05T14:01:33;99608.50;;;8.01;nan
21863;BME280;11096;51.338;12.524;2023-03-05T14:04:06;99591.81;;;7.67;nan
21863;BME280;11096;51.338;12.524;2023-03-05T14:06:35;99601.56;;;7.36;nan
21863;BME280;11096;51.338;12.524;2023-03-05T14:09:16;99600.88;;;7.20;nan
21863;BME280;11096;51.338;12.524;2023-03-05T14:12:03;99592.09;;;7.62;nan
21863;BME280;11096;51.338;12.524;2023-03-05T14:14:34;99587.63;;;8.43;nan
21863;BME280;11096;51.338;12.524;2023-03-05T14:18:01;99575.47;;;8.05;nan
21863;BME280;11096;51.338;12.524;2023-03-05T14:20:28;99586.38;;;7.44;nan
21863;BME280;11096;51.338;12.524;2023-03-05T14:22:56;99570.88;;;6.90;nan
21863;BME280;11096;51.338;12.524;2023-03-05T14:27:59;99569.75;;;6.67;nan
21863;BME280;11096;51.338;12.524;2023-03-05T14:30:24;99557.53;;;6.69;nan
21863;BME280;11096;51.338;12.524;2023-03-05T14:32:53;99566.16;;;6.70;nan
21863;BME280;11096;51.338;12.524;2023-03-05T14:35:22;99550.91;;;6.79;nan
21863;BME280;11096;51.338;12.524;2023-03-05T14:37:49;99543.81;;;6.96;nan
21863;BME280;11096;51.338;12.524;2023-03-05T14:40:22;99546.41;;;6.96;nan
21863;BME280;11096;51.338;12.524;2023-03-05T14:47:54;99541.03;;;7.26;nan
21863;BME280;11096;51.338;12.524;2023-03-05T14:50:25;99543.97;;;6.80;nan
21863;BME280;11096;51.338;12.524;2023-03-05T14:52:57;99534.69;;;6.63;nan
21863;BME280;11096;51.338;12.524;2023-03-05T14:55:26;99533.44;;;6.41;nan